sensor_id;sensor_type;location;lat;lon;timestamp;P1;durP1;ratioP1;P2;durP2;ratioP2
78120;SDS011;67585;44.802;10.332;2023-06-22T00:01:22;11.77;;;3.30;;
78120;SDS011;67585;44.802;10.332;2023-06-22T00:03:48;8.57;;;3.65;;
78120;SDS011;67585;44.802;10.332;2023-06-22T00:06:13;10.45;;;3.95;;
78120;SDS011;67585;44.802;10.332;2023-06-22T00:08:39;9.70;;;3.47;;
78120;SDS011;67585;44.802;10.332;2023-06-22T00:11:05;10.27;;;4.18;;
78120;SDS011;67585;44.802;10.332;2023-06-22T00:13:30;9.25;;;4.45;;
78120;SDS011;67585;44.802;10.332;2023-06-22T00:15:55;9.25;;;3.13;;
78120;SDS011;67585;44.802;10.332;2023-06-22T00:18:21;10.45;;;3.45;;
78120;SDS011;67585;44.802;10.332;2023-06-22T00:20:46;11.07;;;3.25;;
78120;SDS011;67585;44.802;10.332;2023-06-22T00:23:12;10.57;;;3.20;;
78120;SDS011;67585;44.802;10.332;2023-06-22T00:25:40;8.95;;;3.50;;
78120;SDS011;67585;44.802;10.332;2023-06-22T00:28:06;12.20;;;4.28;;
78120;SDS011;67585;44.802;10.332;2023-06-22T00:30:33;9.45;;;4.07;;
78120;SDS011;67585;44.802;10.332;2023-06-22T00:33:16;8.70;;;4.03;;
78120;SDS011;67585;44.802;10.332;2023-06-22T00:35:48;9.25;;;2.60;;
78120;SDS011;67585;44.802;10.332;2023-06-22T00:38:13;10.13;;;3.40;;
78120;SDS011;67585;44.802;10.332;2023-06-22T00:40:38;8.15;;;3.47;;
78120;SDS011;67585;44.802;10.332;2023-06-22T00:43:04;9.27;;;3.42;;
78120;SDS011;67585;44.802;10.332;2023-06-22T00:45:30;12.27;;;3.35;;
78120;SDS011;67585;44.802;10.332;2023-06-22T00:47:56;7.50;;;2.45;;
78120;SDS011;67585;44.802;10.332;2023-06-22T00:50:23;9.35;;;3.10;;
78120;SDS011;67585;44.802;10.332;2023-06-22T00:52:51;9.05;;;3.47;;
78120;SDS011;67585;44.802;10.332;2023-06-22T00:55:21;9.43;;;2.70;;
78120;SDS011;67585;44.802;10.332;2023-06-22T00:57:47;11.18;;;2.55;;
78120;SDS011;67585;44.802;10.332;2023-06-22T01:00:13;13.18;;;3.17;;
78120;SDS011;67585;44.802;10.332;2023-06-22T01:02:42;6.63;;;2.60;;
78120;SDS011;67585;44.802;10.332;2023-06-22T01:05:11;6.57;;;2.40;;
78120;SDS011;67585;44.802;10.332;2023-06-22T01:13:08;11.30;;;2.13;;
78120;SDS011;67585;44.802;10.332;2023-06-22T01:16:01;9.50;;;3.10;;
78120;SDS011;67585;44.802;10.332;2023-06-22T01:18:27;5.90;;;2.15;;
78120;SDS011;67585;44.802;10.332;2023-06-22T01:20:55;7.38;;;3.10;;
78120;SDS011;67585;44.802;10.332;2023-06-22T01:28:48;11.75;;;2.30;;
78120;SDS011;67585;44.802;10.332;2023-06-22T01:31:16;9.10;;;2.60;;
78120;SDS011;67585;44.802;10.332;2023-06-22T01:33:45;6.97;;;2.03;;
78120;SDS011;67585;44.802;10.332;2023-06-22T01:36:14;8.80;;;2.85;;
78120;SDS011;67585;44.802;10.332;2023-06-22T01:38:41;7.85;;;2.15;;
78120;SDS011;67585;44.802;10.332;2023-06-22T01:41:07;10.18;;;3.58;;
78120;SDS011;67585;44.802;10.332;2023-06-22T01:43:32;7.53;;;2.67;;
78120;SDS011;67585;44.802;10.332;2023-06-22T01:45:59;7.25;;;1.98;;
78120;SDS011;67585;44.802;10.332;2023-06-22T01:48:26;12.25;;;3.58;;
78120;SDS011;67585;44.802;10.332;2023-06-22T01:50:52;8.60;;;2.60;;
78120;SDS011;67585;44.802;10.332;2023-06-22T01:53:20;8.85;;;3.03;;
78120;SDS011;67585;44.802;10.332;2023-06-22T01:55:47;10.43;;;3.22;;
78120;SDS011;67585;44.802;10.332;2023-06-22T01:58:12;12.52;;;3.45;;
78120;SDS011;67585;44.802;10.332;2023-06-22T02:00:38;9.20;;;2.33;;
78120;SDS011;67585;44.802;10.332;2023-06-22T02:03:10;8.05;;;2.25;;
78120;SDS011;67585;44.802;10.332;2023-06-22T02:05:39;7.70;;;2.08;;
78120;SDS011;67585;44.802;10.332;2023-06-22T02:10:48;7.88;;;2.97;;
78120;SDS011;67585;44.802;10.332;2023-06-22T02:13:15;8.02;;;2.63;;
78120;SDS011;67585;44.802;10.332;2023-06-22T02:15:41;8.68;;;2.75;;
78120;SDS011;67585;44.802;10.332;2023-06-22T02:18:07;12.23;;;4.00;;
78120;SDS011;67585;44.802;10.332;2023-06-22T02:20:32;12.65;;;3.03;;
78120;SDS011;67585;44.802;10.332;2023-06-22T02:23:01;10.55;;;3.92;;
78120;SDS011;67585;44.802;10.332;2023-06-22T02:25:26;8.82;;;2.40;;
78120;SDS011;67585;44.802;10.332;2023-06-22T02:27:51;10.35;;;3.35;;
78120;SDS011;67585;44.802;10.332;2023-06-22T02:30:17;9.98;;;3.03;;
78120;SDS011;67585;44.802;10.332;2023-06-22T02:32:43;9.90;;;2.70;;
78120;SDS011;67585;44.802;10.332;2023-06-22T02:35:08;9.20;;;2.97;;
78120;SDS011;67585;44.802;10.332;2023-06-22T02:37:38;11.30;;;3.08;;
78120;SDS011;67585;44.802;10.332;2023-06-22T02:40:06;9.90;;;2.00;;
78120;SDS011;67585;44.802;10.332;2023-06-22T02:42:34;7.80;;;3.13;;
78120;SDS011;67585;44.802;10.332;2023-06-22T02:44:59;9.27;;;2.58;;
78120;SDS011;67585;44.802;10.332;2023-06-22T02:47:25;7.88;;;2.72;;
78120;SDS011;67585;44.802;10.332;2023-06-22T02:49:51;6.05;;;2.28;;
78120;SDS011;67585;44.802;10.332;2023-06-22T02:52:16;10.57;;;2.97;;
78120;SDS011;67585;44.802;10.332;2023-06-22T02:54:42;13.20;;;2.85;;
78120;SDS011;67585;44.802;10.332;2023-06-22T02:57:10;11.57;;;3.22;;
78120;SDS011;67585;44.802;10.332;2023-06-22T02:59:38;10.00;;;3.20;;
78120;SDS011;67585;44.802;10.332;2023-06-22T03:02:07;12.02;;;3.72;;
78120;SDS011;67585;44.802;10.332;2023-06-22T03:04:34;13.23;;;3.53;;
78120;SDS011;67585;44.802;10.332;2023-06-22T03:09:26;10.88;;;4.30;;
78120;SDS011;67585;44.802;10.332;2023-06-22T03:11:55;12.35;;;4.10;;
78120;SDS011;67585;44.802;10.332;2023-06-22T03:14:20;9.88;;;4.47;;
78120;SDS011;67585;44.802;10.332;2023-06-22T03:16:46;18.60;;;5.18;;
78120;SDS011;67585;44.802;10.332;2023-06-22T03:19:11;12.70;;;5.32;;
78120;SDS011;67585;44.802;10.332;2023-06-22T03:21:38;11.23;;;4.53;;
78120;SDS011;67585;44.802;10.332;2023-06-22T03:24:03;12.05;;;4.38;;
78120;SDS011;67585;44.802;10.332;2023-06-22T03:26:30;8.88;;;4.45;;
78120;SDS011;67585;44.802;10.332;2023-06-22T03:28:55;11.25;;;4.18;;
78120;SDS011;67585;44.802;10.332;2023-06-22T03:31:20;11.20;;;4.22;;
78120;SDS011;67585;44.802;10.332;2023-06-22T03:33:47;12.27;;;4.50;;
78120;SDS011;67585;44.802;10.332;2023-06-22T03:36:15;12.73;;;4.40;;
78120;SDS011;67585;44.802;10.332;2023-06-22T03:38:44;10.48;;;3.90;;
78120;SDS011;67585;44.802;10.332;2023-06-22T03:41:10;12.27;;;4.07;;
78120;SDS011;67585;44.802;10.332;2023-06-22T03:43:36;9.45;;;3.10;;
78120;SDS011;67585;44.802;10.332;2023-06-22T03:46:01;15.07;;;3.95;;
78120;SDS011;67585;44.802;10.332;2023-06-22T03:48:26;9.13;;;2.83;;
78120;SDS011;67585;44.802;10.332;2023-06-22T03:50:52;14.05;;;2.88;;
78120;SDS011;67585;44.802;10.332;2023-06-22T03:53:17;11.50;;;3.25;;
78120;SDS011;67585;44.802;10.332;2023-06-22T03:55:50;8.23;;;2.63;;
78120;SDS011;67585;44.802;10.332;2023-06-22T03:58:16;12.32;;;3.47;;
78120;SDS011;67585;44.802;10.332;2023-06-22T04:00:44;10.63;;;3.08;;
78120;SDS011;67585;44.802;10.332;2023-06-22T04:03:13;7.88;;;2.70;;
78120;SDS011;67585;44.802;10.332;2023-06-22T04:05:40;13.15;;;3.20;;
78120;SDS011;67585;44.802;10.332;2023-06-22T04:08:06;13.18;;;2.42;;
78120;SDS011;67585;44.802;10.332;2023-06-22T04:10:31;10.35;;;2.72;;
78120;SDS011;67585;44.802;10.332;2023-06-22T04:12:57;9.23;;;2.70;;
78120;SDS011;67585;44.802;10.332;2023-06-22T04:15:22;9.10;;;2.15;;
78120;SDS011;67585;44.802;10.332;2023-06-22T04:17:48;8.85;;;2.75;;
78120;SDS011;67585;44.802;10.332;2023-06-22T04:20:13;9.88;;;2.75;;
78120;SDS011;67585;44.802;10.332;2023-06-22T04:22:39;8.15;;;3.03;;
78120;SDS011;67585;44.802;10.332;2023-06-22T04:25:05;8.00;;;2.58;;
78120;SDS011;67585;44.802;10.332;2023-06-22T04:27:32;11.25;;;2.58;;
78120;SDS011;67585;44.802;10.332;2023-06-22T04:30:01;11.63;;;3.50;;
78120;SDS011;67585;44.802;10.332;2023-06-22T04:32:27;8.13;;;2.70;;
78120;SDS011;67585;44.802;10.332;2023-06-22T04:34:52;10.48;;;3.80;;
78120;SDS011;67585;44.802;10.332;2023-06-22T04:37:18;9.90;;;3.25;;
78120;SDS011;67585;44.802;10.332;2023-06-22T04:39:43;12.63;;;3.53;;
78120;SDS011;67585;44.802;10.332;2023-06-22T04:42:08;9.05;;;4.07;;
78120;SDS011;67585;44.802;10.332;2023-06-22T04:44:34;9.77;;;3.13;;
78120;SDS011;67585;44.802;10.332;2023-06-22T04:47:02;12.90;;;2.47;;
78120;SDS011;67585;44.802;10.332;2023-06-22T04:49:33;7.47;;;2.65;;
78120;SDS011;67585;44.802;10.332;2023-06-22T04:54:32;10.02;;;4.13;;
78120;SDS011;67585;44.802;10.332;2023-06-22T04:56:59;10.88;;;3.15;;
78120;SDS011;67585;44.802;10.332;2023-06-22T04:59:28;10.40;;;3.92;;
78120;SDS011;67585;44.802;10.332;2023-06-22T05:04:24;10.48;;;4.30;;
78120;SDS011;67585;44.802;10.332;2023-06-22T05:06:51;9.32;;;3.67;;
78120;SDS011;67585;44.802;10.332;2023-06-22T05:09:17;10.18;;;3.72;;
78120;SDS011;67585;44.802;10.332;2023-06-22T05:11:43;12.50;;;3.55;;
78120;SDS011;67585;44.802;10.332;2023-06-22T05:14:09;9.90;;;3.97;;
78120;SDS011;67585;44.802;10.332;2023-06-22T05:16:35;10.50;;;3.33;;
78120;SDS011;67585;44.802;10.332;2023-06-22T05:19:02;11.70;;;3.10;;
78120;SDS011;67585;44.802;10.332;2023-06-22T05:23:54;11.18;;;3.33;;
78120;SDS011;67585;44.802;10.332;2023-06-22T05:26:21;11.65;;;3.88;;
78120;SDS011;67585;44.802;10.332;2023-06-22T05:28:47;9.70;;;3.72;;
78120;SDS011;67585;44.802;10.332;2023-06-22T05:31:13;9.05;;;3.97;;
78120;SDS011;67585;44.802;10.332;2023-06-22T05:36:05;11.00;;;4.00;;
78120;SDS011;67585;44.802;10.332;2023-06-22T05:38:30;22.25;;;6.07;;
78120;SDS011;67585;44.802;10.332;2023-06-22T05:40:56;11.45;;;4.15;;
78120;SDS011;67585;44.802;10.332;2023-06-22T05:43:21;12.88;;;4.47;;
78120;SDS011;67585;44.802;10.332;2023-06-22T05:45:47;16.77;;;4.95;;
78120;SDS011;67585;44.802;10.332;2023-06-22T05:48:12;11.23;;;4.93;;
78120;SDS011;67585;44.802;10.332;2023-06-22T05:50:37;17.20;;;5.00;;
78120;SDS011;67585;44.802;10.332;2023-06-22T05:53:03;15.48;;;4.70;;
78120;SDS011;67585;44.802;10.332;2023-06-22T05:55:28;13.43;;;4.63;;
78120;SDS011;67585;44.802;10.332;2023-06-22T05:57:53;23.20;;;6.50;;
78120;SDS011;67585;44.802;10.332;2023-06-22T06:00:19;18.85;;;5.25;;
78120;SDS011;67585;44.802;10.332;2023-06-22T06:02:45;14.00;;;4.78;;
78120;SDS011;67585;44.802;10.332;2023-06-22T06:05:11;12.88;;;5.70;;
78120;SDS011;67585;44.802;10.332;2023-06-22T06:07:39;18.77;;;5.32;;
78120;SDS011;67585;44.802;10.332;2023-06-22T06:10:05;16.95;;;6.53;;
78120;SDS011;67585;44.802;10.332;2023-06-22T06:12:31;13.73;;;5.57;;
78120;SDS011;67585;44.802;10.332;2023-06-22T06:14:57;16.30;;;5.63;;
78120;SDS011;67585;44.802;10.332;2023-06-22T06:17:22;10.70;;;3.70;;
78120;SDS011;67585;44.802;10.332;2023-06-22T06:19:47;14.80;;;5.35;;
78120;SDS011;67585;44.802;10.332;2023-06-22T06:22:13;18.40;;;5.45;;
78120;SDS011;67585;44.802;10.332;2023-06-22T06:24:38;20.20;;;4.70;;
78120;SDS011;67585;44.802;10.332;2023-06-22T06:27:04;17.17;;;5.50;;
78120;SDS011;67585;44.802;10.332;2023-06-22T06:29:30;12.73;;;3.70;;
78120;SDS011;67585;44.802;10.332;2023-06-22T06:31:56;11.38;;;4.72;;
78120;SDS011;67585;44.802;10.332;2023-06-22T06:34:21;19.95;;;5.78;;
78120;SDS011;67585;44.802;10.332;2023-06-22T06:36:47;13.77;;;4.20;;
78120;SDS011;67585;44.802;10.332;2023-06-22T06:39:12;11.85;;;3.90;;
78120;SDS011;67585;44.802;10.332;2023-06-22T06:41:38;15.85;;;4.07;;
78120;SDS011;67585;44.802;10.332;2023-06-22T06:44:03;11.70;;;4.00;;
78120;SDS011;67585;44.802;10.332;2023-06-22T06:46:29;9.40;;;4.53;;
78120;SDS011;67585;44.802;10.332;2023-06-22T06:48:54;12.63;;;4.20;;
78120;SDS011;67585;44.802;10.332;2023-06-22T06:51:19;11.50;;;3.60;;
78120;SDS011;67585;44.802;10.332;2023-06-22T06:53:45;12.02;;;4.25;;
78120;SDS011;67585;44.802;10.332;2023-06-22T06:56:10;9.48;;;2.50;;
78120;SDS011;67585;44.802;10.332;2023-06-22T06:58:36;9.98;;;4.13;;
78120;SDS011;67585;44.802;10.332;2023-06-22T07:01:01;8.60;;;2.85;;
78120;SDS011;67585;44.802;10.332;2023-06-22T07:03:28;12.60;;;2.88;;
78120;SDS011;67585;44.802;10.332;2023-06-22T07:05:53;7.95;;;2.90;;
78120;SDS011;67585;44.802;10.332;2023-06-22T07:08:19;11.63;;;2.75;;
78120;SDS011;67585;44.802;10.332;2023-06-22T07:10:44;17.33;;;3.22;;
78120;SDS011;67585;44.802;10.332;2023-06-22T07:13:10;7.53;;;2.47;;
78120;SDS011;67585;44.802;10.332;2023-06-22T07:15:35;10.40;;;3.35;;
78120;SDS011;67585;44.802;10.332;2023-06-22T07:18:00;8.63;;;2.58;;
78120;SDS011;67585;44.802;10.332;2023-06-22T07:20:26;8.57;;;3.63;;
78120;SDS011;67585;44.802;10.332;2023-06-22T07:22:51;10.88;;;3.33;;
78120;SDS011;67585;44.802;10.332;2023-06-22T07:25:17;11.02;;;3.67;;
78120;SDS011;67585;44.802;10.332;2023-06-22T07:27:44;10.65;;;2.35;;
78120;SDS011;67585;44.802;10.332;2023-06-22T07:30:11;12.93;;;2.88;;
78120;SDS011;67585;44.802;10.332;2023-06-22T07:32:37;8.15;;;2.25;;
78120;SDS011;67585;44.802;10.332;2023-06-22T07:35:03;9.27;;;3.40;;
78120;SDS011;67585;44.802;10.332;2023-06-22T07:37:29;6.03;;;2.35;;
78120;SDS011;67585;44.802;10.332;2023-06-22T07:39:55;9.27;;;3.22;;
78120;SDS011;67585;44.802;10.332;2023-06-22T07:42:25;10.60;;;2.45;;
78120;SDS011;67585;44.802;10.332;2023-06-22T07:44:51;10.20;;;3.35;;
78120;SDS011;67585;44.802;10.332;2023-06-22T07:47:16;10.30;;;3.10;;
78120;SDS011;67585;44.802;10.332;2023-06-22T07:49:45;12.80;;;2.97;;
78120;SDS011;67585;44.802;10.332;2023-06-22T07:52:12;8.27;;;3.08;;
78120;SDS011;67585;44.802;10.332;2023-06-22T07:54:37;10.93;;;4.07;;
78120;SDS011;67585;44.802;10.332;2023-06-22T07:57:03;8.13;;;2.55;;
78120;SDS011;67585;44.802;10.332;2023-06-22T07:59:29;8.23;;;3.47;;
78120;SDS011;67585;44.802;10.332;2023-06-22T08:01:55;10.88;;;3.22;;
78120;SDS011;67585;44.802;10.332;2023-06-22T08:04:20;11.23;;;2.45;;
78120;SDS011;67585;44.802;10.332;2023-06-22T08:06:45;8.15;;;3.15;;
78120;SDS011;67585;44.802;10.332;2023-06-22T08:09:11;11.57;;;4.40;;
78120;SDS011;67585;44.802;10.332;2023-06-22T08:11:37;9.38;;;2.85;;
78120;SDS011;67585;44.802;10.332;2023-06-22T08:14:02;12.43;;;3.03;;
78120;SDS011;67585;44.802;10.332;2023-06-22T08:16:28;9.80;;;3.75;;
78120;SDS011;67585;44.802;10.332;2023-06-22T08:18:53;9.75;;;3.10;;
78120;SDS011;67585;44.802;10.332;2023-06-22T08:21:19;9.00;;;3.25;;
78120;SDS011;67585;44.802;10.332;2023-06-22T08:23:45;13.80;;;3.63;;
78120;SDS011;67585;44.802;10.332;2023-06-22T08:26:10;11.98;;;4.93;;
78120;SDS011;67585;44.802;10.332;2023-06-22T08:28:35;11.80;;;4.07;;
78120;SDS011;67585;44.802;10.332;2023-06-22T08:31:02;10.45;;;3.92;;
78120;SDS011;67585;44.802;10.332;2023-06-22T08:35:55;16.50;;;3.53;;
78120;SDS011;67585;44.802;10.332;2023-06-22T08:38:21;13.73;;;3.97;;
78120;SDS011;67585;44.802;10.332;2023-06-22T08:40:46;13.90;;;4.22;;
78120;SDS011;67585;44.802;10.332;2023-06-22T08:43:12;12.65;;;4.03;;
78120;SDS011;67585;44.802;10.332;2023-06-22T08:45:37;12.93;;;4.82;;
78120;SDS011;67585;44.802;10.332;2023-06-22T08:48:02;10.68;;;4.68;;
78120;SDS011;67585;44.802;10.332;2023-06-22T08:50:28;9.55;;;4.38;;
78120;SDS011;67585;44.802;10.332;2023-06-22T08:52:53;12.70;;;4.15;;
78120;SDS011;67585;44.802;10.332;2023-06-22T08:55:19;12.50;;;3.42;;
78120;SDS011;67585;44.802;10.332;2023-06-22T08:57:44;10.05;;;3.38;;
78120;SDS011;67585;44.802;10.332;2023-06-22T09:00:10;11.20;;;3.45;;
78120;SDS011;67585;44.802;10.332;2023-06-22T09:05:11;12.85;;;3.97;;
78120;SDS011;67585;44.802;10.332;2023-06-22T09:07:36;11.65;;;3.85;;
78120;SDS011;67585;44.802;10.332;2023-06-22T09:10:02;11.10;;;4.65;;
78120;SDS011;67585;44.802;10.332;2023-06-22T09:12:31;11.15;;;4.68;;
78120;SDS011;67585;44.802;10.332;2023-06-22T09:14:58;12.73;;;4.03;;
78120;SDS011;67585;44.802;10.332;2023-06-22T09:17:25;13.70;;;3.97;;
78120;SDS011;67585;44.802;10.332;2023-06-22T09:19:50;9.93;;;3.63;;
78120;SDS011;67585;44.802;10.332;2023-06-22T09:22:16;15.02;;;4.97;;
78120;SDS011;67585;44.802;10.332;2023-06-22T09:24:41;17.33;;;3.60;;
78120;SDS011;67585;44.802;10.332;2023-06-22T09:27:07;9.65;;;4.10;;
78120;SDS011;67585;44.802;10.332;2023-06-22T09:29:32;11.23;;;5.22;;
78120;SDS011;67585;44.802;10.332;2023-06-22T09:32:00;12.40;;;4.38;;
78120;SDS011;67585;44.802;10.332;2023-06-22T09:34:26;14.02;;;4.72;;
78120;SDS011;67585;44.802;10.332;2023-06-22T09:36:52;9.70;;;3.95;;
78120;SDS011;67585;44.802;10.332;2023-06-22T09:39:18;14.18;;;3.65;;
78120;SDS011;67585;44.802;10.332;2023-06-22T09:41:43;7.43;;;3.10;;
78120;SDS011;67585;44.802;10.332;2023-06-22T09:44:08;10.60;;;4.32;;
78120;SDS011;67585;44.802;10.332;2023-06-22T09:46:34;12.43;;;4.18;;
78120;SDS011;67585;44.802;10.332;2023-06-22T09:48:59;10.02;;;4.43;;
78120;SDS011;67585;44.802;10.332;2023-06-22T09:51:25;12.73;;;4.78;;
78120;SDS011;67585;44.802;10.332;2023-06-22T09:53:50;13.98;;;3.92;;
78120;SDS011;67585;44.802;10.332;2023-06-22T09:56:16;15.57;;;4.50;;
78120;SDS011;67585;44.802;10.332;2023-06-22T09:58:42;8.93;;;3.92;;
78120;SDS011;67585;44.802;10.332;2023-06-22T10:01:08;14.27;;;4.35;;
78120;SDS011;67585;44.802;10.332;2023-06-22T10:03:33;11.68;;;5.10;;
78120;SDS011;67585;44.802;10.332;2023-06-22T10:05:59;8.52;;;4.30;;
78120;SDS011;67585;44.802;10.332;2023-06-22T10:08:24;15.20;;;4.65;;
78120;SDS011;67585;44.802;10.332;2023-06-22T10:10:50;13.68;;;4.75;;
78120;SDS011;67585;44.802;10.332;2023-06-22T10:13:15;10.77;;;3.78;;
78120;SDS011;67585;44.802;10.332;2023-06-22T10:15:41;13.23;;;5.35;;
78120;SDS011;67585;44.802;10.332;2023-06-22T10:20:32;10.32;;;4.15;;
78120;SDS011;67585;44.802;10.332;2023-06-22T10:22:58;9.05;;;3.97;;
78120;SDS011;67585;44.802;10.332;2023-06-22T10:25:23;15.45;;;5.47;;
78120;SDS011;67585;44.802;10.332;2023-06-22T10:27:49;10.15;;;4.82;;
78120;SDS011;67585;44.802;10.332;2023-06-22T10:30:14;13.48;;;4.32;;
78120;SDS011;67585;44.802;10.332;2023-06-22T10:32:41;14.25;;;4.88;;
78120;SDS011;67585;44.802;10.332;2023-06-22T10:35:08;11.23;;;4.75;;
78120;SDS011;67585;44.802;10.332;2023-06-22T10:37:35;8.43;;;4.72;;
78120;SDS011;67585;44.802;10.332;2023-06-22T10:40:01;15.93;;;4.07;;
78120;SDS011;67585;44.802;10.332;2023-06-22T10:42:27;8.70;;;4.05;;
78120;SDS011;67585;44.802;10.332;2023-06-22T10:44:53;13.23;;;4.57;;
78120;SDS011;67585;44.802;10.332;2023-06-22T10:47:18;9.63;;;4.75;;
78120;SDS011;67585;44.802;10.332;2023-06-22T10:49:43;14.45;;;4.10;;
78120;SDS011;67585;44.802;10.332;2023-06-22T10:52:09;10.60;;;3.28;;
78120;SDS011;67585;44.802;10.332;2023-06-22T10:54:35;13.25;;;4.88;;
78120;SDS011;67585;44.802;10.332;2023-06-22T10:57:01;10.07;;;5.13;;
78120;SDS011;67585;44.802;10.332;2023-06-22T10:59:28;7.75;;;3.97;;
78120;SDS011;67585;44.802;10.332;2023-06-22T11:01:57;9.95;;;4.40;;
78120;SDS011;67585;44.802;10.332;2023-06-22T11:04:23;14.05;;;4.13;;
78120;SDS011;67585;44.802;10.332;2023-06-22T11:06:49;11.65;;;4.57;;
78120;SDS011;67585;44.802;10.332;2023-06-22T11:09:15;14.40;;;5.65;;
78120;SDS011;67585;44.802;10.332;2023-06-22T11:11:45;12.07;;;4.60;;
78120;SDS011;67585;44.802;10.332;2023-06-22T11:14:10;11.63;;;4.93;;
78120;SDS011;67585;44.802;10.332;2023-06-22T11:16:36;15.40;;;4.47;;
78120;SDS011;67585;44.802;10.332;2023-06-22T11:19:01;14.00;;;6.35;;
78120;SDS011;67585;44.802;10.332;2023-06-22T11:21:28;15.63;;;6.15;;
78120;SDS011;67585;44.802;10.332;2023-06-22T11:23:53;10.82;;;5.30;;
78120;SDS011;67585;44.802;10.332;2023-06-22T11:26:19;12.98;;;3.60;;
78120;SDS011;67585;44.802;10.332;2023-06-22T11:28:46;13.43;;;4.28;;
78120;SDS011;67585;44.802;10.332;2023-06-22T11:31:12;14.13;;;4.80;;
78120;SDS011;67585;44.802;10.332;2023-06-22T11:33:37;15.38;;;5.80;;
78120;SDS011;67585;44.802;10.332;2023-06-22T11:36:03;11.68;;;4.22;;
78120;SDS011;67585;44.802;10.332;2023-06-22T11:38:28;10.30;;;4.15;;
78120;SDS011;67585;44.802;10.332;2023-06-22T11:40:55;15.82;;;5.10;;
78120;SDS011;67585;44.802;10.332;2023-06-22T11:43:21;12.73;;;4.53;;
78120;SDS011;67585;44.802;10.332;2023-06-22T11:45:46;12.00;;;4.15;;
78120;SDS011;67585;44.802;10.332;2023-06-22T11:48:12;12.80;;;4.63;;
78120;SDS011;67585;44.802;10.332;2023-06-22T11:50:37;9.98;;;4.47;;
78120;SDS011;67585;44.802;10.332;2023-06-22T11:53:02;12.65;;;5.63;;
78120;SDS011;67585;44.802;10.332;2023-06-22T11:55:28;12.15;;;4.80;;
78120;SDS011;67585;44.802;10.332;2023-06-22T11:57:54;12.75;;;5.38;;
78120;SDS011;67585;44.802;10.332;2023-06-22T12:00:21;10.90;;;4.45;;
78120;SDS011;67585;44.802;10.332;2023-06-22T12:02:48;9.52;;;4.97;;
78120;SDS011;67585;44.802;10.332;2023-06-22T12:05:14;12.07;;;4.57;;
78120;SDS011;67585;44.802;10.332;2023-06-22T12:07:39;11.32;;;4.75;;
78120;SDS011;67585;44.802;10.332;2023-06-22T12:10:05;13.77;;;4.63;;
78120;SDS011;67585;44.802;10.332;2023-06-22T12:12:31;11.38;;;4.15;;
78120;SDS011;67585;44.802;10.332;2023-06-22T12:14:56;8.95;;;5.00;;
78120;SDS011;67585;44.802;10.332;2023-06-22T12:17:21;14.85;;;4.50;;
78120;SDS011;67585;44.802;10.332;2023-06-22T12:19:47;12.05;;;3.70;;
78120;SDS011;67585;44.802;10.332;2023-06-22T12:22:12;8.63;;;3.53;;
78120;SDS011;67585;44.802;10.332;2023-06-22T12:24:38;12.93;;;5.05;;
78120;SDS011;67585;44.802;10.332;2023-06-22T12:27:03;13.07;;;5.15;;
78120;SDS011;67585;44.802;10.332;2023-06-22T12:29:29;12.05;;;4.80;;
78120;SDS011;67585;44.802;10.332;2023-06-22T12:31:54;12.95;;;5.63;;
78120;SDS011;67585;44.802;10.332;2023-06-22T12:34:19;17.25;;;7.63;;
78120;SDS011;67585;44.802;10.332;2023-06-22T12:36:45;11.75;;;5.32;;
78120;SDS011;67585;44.802;10.332;2023-06-22T12:39:13;16.98;;;5.13;;
78120;SDS011;67585;44.802;10.332;2023-06-22T12:41:38;11.50;;;5.85;;
78120;SDS011;67585;44.802;10.332;2023-06-22T12:44:04;12.30;;;5.13;;
78120;SDS011;67585;44.802;10.332;2023-06-22T12:46:29;15.48;;;5.28;;
78120;SDS011;67585;44.802;10.332;2023-06-22T12:49:00;11.00;;;4.43;;
78120;SDS011;67585;44.802;10.332;2023-06-22T12:51:26;10.80;;;5.22;;
78120;SDS011;67585;44.802;10.332;2023-06-22T12:53:51;11.05;;;4.53;;
78120;SDS011;67585;44.802;10.332;2023-06-22T12:56:16;14.98;;;4.55;;
78120;SDS011;67585;44.802;10.332;2023-06-22T12:58:42;13.55;;;4.78;;
78120;SDS011;67585;44.802;10.332;2023-06-22T13:01:07;10.85;;;4.18;;
78120;SDS011;67585;44.802;10.332;2023-06-22T13:03:32;15.48;;;6.80;;
78120;SDS011;67585;44.802;10.332;2023-06-22T13:05:58;14.77;;;5.53;;
78120;SDS011;67585;44.802;10.332;2023-06-22T13:08:23;11.95;;;4.60;;
78120;SDS011;67585;44.802;10.332;2023-06-22T13:10:49;14.15;;;5.05;;
78120;SDS011;67585;44.802;10.332;2023-06-22T13:13:14;13.55;;;5.55;;
78120;SDS011;67585;44.802;10.332;2023-06-22T13:15:39;14.23;;;5.30;;
78120;SDS011;67585;44.802;10.332;2023-06-22T13:18:05;21.33;;;5.13;;
78120;SDS011;67585;44.802;10.332;2023-06-22T13:20:30;14.65;;;5.60;;
78120;SDS011;67585;44.802;10.332;2023-06-22T13:22:56;10.13;;;5.05;;
78120;SDS011;67585;44.802;10.332;2023-06-22T13:25:22;12.65;;;5.10;;
78120;SDS011;67585;44.802;10.332;2023-06-22T13:27:51;13.20;;;5.28;;
78120;SDS011;67585;44.802;10.332;2023-06-22T13:30:16;13.02;;;5.70;;
78120;SDS011;67585;44.802;10.332;2023-06-22T13:32:42;20.02;;;5.80;;
78120;SDS011;67585;44.802;10.332;2023-06-22T13:35:08;12.93;;;5.38;;
78120;SDS011;67585;44.802;10.332;2023-06-22T13:37:34;10.65;;;5.57;;
78120;SDS011;67585;44.802;10.332;2023-06-22T13:40:00;16.63;;;6.00;;
78120;SDS011;67585;44.802;10.332;2023-06-22T13:42:27;15.75;;;5.43;;
78120;SDS011;67585;44.802;10.332;2023-06-22T13:44:53;14.45;;;5.82;;
78120;SDS011;67585;44.802;10.332;2023-06-22T13:47:18;17.27;;;6.03;;
78120;SDS011;67585;44.802;10.332;2023-06-22T13:49:43;10.27;;;5.55;;
78120;SDS011;67585;44.802;10.332;2023-06-22T13:52:09;14.68;;;5.35;;
78120;SDS011;67585;44.802;10.332;2023-06-22T13:54:36;12.95;;;5.82;;
78120;SDS011;67585;44.802;10.332;2023-06-22T13:57:01;17.48;;;5.43;;
78120;SDS011;67585;44.802;10.332;2023-06-22T13:59:27;18.48;;;6.80;;
78120;SDS011;67585;44.802;10.332;2023-06-22T14:01:53;12.73;;;5.18;;
78120;SDS011;67585;44.802;10.332;2023-06-22T14:04:19;12.98;;;5.28;;
78120;SDS011;67585;44.802;10.332;2023-06-22T14:06:44;17.85;;;5.97;;
78120;SDS011;67585;44.802;10.332;2023-06-22T14:09:09;14.60;;;6.18;;
78120;SDS011;67585;44.802;10.332;2023-06-22T14:11:35;13.60;;;6.10;;
78120;SDS011;67585;44.802;10.332;2023-06-22T14:14:00;14.05;;;6.05;;
78120;SDS011;67585;44.802;10.332;2023-06-22T14:16:25;13.25;;;6.43;;
78120;SDS011;67585;44.802;10.332;2023-06-22T14:18:51;12.90;;;5.75;;
78120;SDS011;67585;44.802;10.332;2023-06-22T14:21:16;20.88;;;6.97;;
78120;SDS011;67585;44.802;10.332;2023-06-22T14:23:42;13.68;;;6.30;;
78120;SDS011;67585;44.802;10.332;2023-06-22T14:26:12;17.20;;;7.40;;
78120;SDS011;67585;44.802;10.332;2023-06-22T14:28:37;12.85;;;6.20;;
78120;SDS011;67585;44.802;10.332;2023-06-22T14:31:02;11.68;;;5.63;;
78120;SDS011;67585;44.802;10.332;2023-06-22T14:33:28;14.80;;;6.82;;
78120;SDS011;67585;44.802;10.332;2023-06-22T14:35:53;12.85;;;6.18;;
78120;SDS011;67585;44.802;10.332;2023-06-22T14:38:19;15.93;;;6.97;;
78120;SDS011;67585;44.802;10.332;2023-06-22T14:40:44;15.20;;;6.20;;
78120;SDS011;67585;44.802;10.332;2023-06-22T14:43:10;12.15;;;6.25;;
78120;SDS011;67585;44.802;10.332;2023-06-22T14:45:35;19.00;;;7.80;;
78120;SDS011;67585;44.802;10.332;2023-06-22T14:48:00;17.08;;;5.80;;
78120;SDS011;67585;44.802;10.332;2023-06-22T14:50:26;17.77;;;6.60;;
78120;SDS011;67585;44.802;10.332;2023-06-22T14:52:51;12.27;;;5.60;;